sensor_id;sensor_type;location;lat;lon;timestamp;P1;durP1;ratioP1;P2;durP2;ratioP2
52934;SDS011;38802;50.198;19.796;2023-02-28T00:01:05;16.70;;;8.10;;
52934;SDS011;38802;50.198;19.796;2023-02-28T00:03:32;12.30;;;7.80;;
52934;SDS011;38802;50.198;19.796;2023-02-28T00:06:02;13.40;;;8.10;;
52934;SDS011;38802;50.198;19.796;2023-02-28T00:08:30;12.90;;;9.20;;
52934;SDS011;38802;50.198;19.796;2023-02-28T00:11:00;11.30;;;8.30;;
52934;SDS011;38802;50.198;19.796;2023-02-28T00:13:29;12.40;;;8.20;;
52934;SDS011;38802;50.198;19.796;2023-02-28T00:15:59;12.60;;;9.20;;
52934;SDS011;38802;50.198;19.796;2023-02-28T00:18:31;13.90;;;9.10;;
52934;SDS011;38802;50.198;19.796;2023-02-28T00:20:58;10.10;;;9.20;;
52934;SDS011;38802;50.198;19.796;2023-02-28T00:23:26;14.90;;;8.70;;
52934;SDS011;38802;50.198;19.796;2023-02-28T00:25:53;9.70;;;8.40;;
52934;SDS011;38802;50.198;19.796;2023-02-28T00:28:21;13.30;;;8.40;;
52934;SDS011;38802;50.198;19.796;2023-02-28T00:30:48;13.20;;;8.60;;
52934;SDS011;38802;50.198;19.796;2023-02-28T00:33:15;11.70;;;8.60;;
52934;SDS011;38802;50.198;19.796;2023-02-28T00:35:42;12.30;;;9.20;;
52934;SDS011;38802;50.198;19.796;2023-02-28T00:38:15;13.40;;;8.60;;
52934;SDS011;38802;50.198;19.796;2023-02-28T00:40:42;12.50;;;8.50;;
52934;SDS011;38802;50.198;19.796;2023-02-28T00:43:10;16.20;;;8.70;;
52934;SDS011;38802;50.198;19.796;2023-02-28T00:45:37;16.30;;;9.80;;
52934;SDS011;38802;50.198;19.796;2023-02-28T00:48:04;15.80;;;9.20;;
52934;SDS011;38802;50.198;19.796;2023-02-28T00:50:30;13.00;;;9.50;;
52934;SDS011;38802;50.198;19.796;2023-02-28T00:52:57;12.50;;;8.90;;
52934;SDS011;38802;50.198;19.796;2023-02-28T00:55:24;14.00;;;8.20;;
52934;SDS011;38802;50.198;19.796;2023-02-28T00:57:51;16.50;;;9.40;;
52934;SDS011;38802;50.198;19.796;2023-02-28T01:00:17;19.20;;;9.80;;
52934;SDS011;38802;50.198;19.796;2023-02-28T01:02:44;16.80;;;9.40;;
52934;SDS011;38802;50.198;19.796;2023-02-28T01:05:11;20.10;;;10.60;;
52934;SDS011;38802;50.198;19.796;2023-02-28T01:07:37;15.30;;;11.20;;
52934;SDS011;38802;50.198;19.796;2023-02-28T01:10:04;12.20;;;9.10;;
52934;SDS011;38802;50.198;19.796;2023-02-28T01:12:32;18.60;;;9.60;;
52934;SDS011;38802;50.198;19.796;2023-02-28T01:14:58;16.50;;;9.90;;
52934;SDS011;38802;50.198;19.796;2023-02-28T01:17:25;19.00;;;10.30;;
52934;SDS011;38802;50.198;19.796;2023-02-28T01:19:53;15.40;;;9.60;;
52934;SDS011;38802;50.198;19.796;2023-02-28T01:22:24;15.00;;;10.40;;
52934;SDS011;38802;50.198;19.796;2023-02-28T01:24:51;20.20;;;10.50;;
52934;SDS011;38802;50.198;19.796;2023-02-28T01:27:17;21.30;;;10.40;;
52934;SDS011;38802;50.198;19.796;2023-02-28T01:29:44;14.40;;;10.00;;
52934;SDS011;38802;50.198;19.796;2023-02-28T01:32:12;23.90;;;12.50;;
52934;SDS011;38802;50.198;19.796;2023-02-28T01:34:38;17.30;;;10.90;;
52934;SDS011;38802;50.198;19.796;2023-02-28T01:37:05;20.90;;;10.70;;
52934;SDS011;38802;50.198;19.796;2023-02-28T01:39:32;15.80;;;10.20;;
52934;SDS011;38802;50.198;19.796;2023-02-28T01:41:58;17.60;;;10.70;;
52934;SDS011;38802;50.198;19.796;2023-02-28T01:47:31;20.20;;;11.60;;
52934;SDS011;38802;50.198;19.796;2023-02-28T01:50:03;24.10;;;11.70;;
52934;SDS011;38802;50.198;19.796;2023-02-28T01:52:32;21.60;;;11.40;;
52934;SDS011;38802;50.198;19.796;2023-02-28T01:55:00;17.60;;;11.50;;
52934;SDS011;38802;50.198;19.796;2023-02-28T01:57:32;18.40;;;11.90;;
52934;SDS011;38802;50.198;19.796;2023-02-28T02:00:13;17.20;;;12.40;;
52934;SDS011;38802;50.198;19.796;2023-02-28T02:02:50;25.30;;;13.60;;
52934;SDS011;38802;50.198;19.796;2023-02-28T02:05:23;22.10;;;13.10;;
52934;SDS011;38802;50.198;19.796;2023-02-28T02:07:55;24.30;;;12.60;;
52934;SDS011;38802;50.198;19.796;2023-02-28T02:10:31;19.40;;;12.70;;
52934;SDS011;38802;50.198;19.796;2023-02-28T02:18:38;22.20;;;11.60;;
52934;SDS011;38802;50.198;19.796;2023-02-28T02:40:38;21.80;;;11.60;;
52934;SDS011;38802;50.198;19.796;2023-02-28T02:43:17;17.40;;;11.10;;
52934;SDS011;38802;50.198;19.796;2023-02-28T02:45:52;22.20;;;11.80;;
52934;SDS011;38802;50.198;19.796;2023-02-28T02:48:27;20.30;;;12.50;;
52934;SDS011;38802;50.198;19.796;2023-02-28T02:50:58;21.30;;;12.20;;
52934;SDS011;38802;50.198;19.796;2023-02-28T02:53:29;14.10;;;9.70;;
52934;SDS011;38802;50.198;19.796;2023-02-28T02:56:01;14.30;;;9.90;;
52934;SDS011;38802;50.198;19.796;2023-02-28T02:58:31;14.40;;;9.00;;
52934;SDS011;38802;50.198;19.796;2023-02-28T03:01:02;13.60;;;9.50;;
52934;SDS011;38802;50.198;19.796;2023-02-28T03:03:31;15.60;;;10.30;;
52934;SDS011;38802;50.198;19.796;2023-02-28T03:06:00;14.30;;;9.80;;
52934;SDS011;38802;50.198;19.796;2023-02-28T03:08:28;16.60;;;9.20;;
52934;SDS011;38802;50.198;19.796;2023-02-28T03:11:00;19.20;;;10.90;;
52934;SDS011;38802;50.198;19.796;2023-02-28T03:16:29;15.90;;;10.20;;
52934;SDS011;38802;50.198;19.796;2023-02-28T03:21:45;15.20;;;10.10;;
52934;SDS011;38802;50.198;19.796;2023-02-28T03:27:29;17.60;;;10.50;;
52934;SDS011;38802;50.198;19.796;2023-02-28T03:30:09;16.30;;;10.90;;
52934;SDS011;38802;50.198;19.796;2023-02-28T03:37:49;21.60;;;10.00;;
52934;SDS011;38802;50.198;19.796;2023-02-28T03:40:21;17.00;;;11.30;;
52934;SDS011;38802;50.198;19.796;2023-02-28T03:42:52;23.60;;;12.40;;
52934;SDS011;38802;50.198;19.796;2023-02-28T03:45:26;18.30;;;11.80;;
52934;SDS011;38802;50.198;19.796;2023-02-28T03:51:11;22.40;;;13.10;;
52934;SDS011;38802;50.198;19.796;2023-02-28T03:53:53;16.80;;;12.10;;
52934;SDS011;38802;50.198;19.796;2023-02-28T03:56:27;23.70;;;13.30;;
52934;SDS011;38802;50.198;19.796;2023-02-28T04:01:49;25.50;;;13.70;;
52934;SDS011;38802;50.198;19.796;2023-02-28T04:04:17;23.40;;;15.50;;
52934;SDS011;38802;50.198;19.796;2023-02-28T04:06:44;21.70;;;13.40;;
52934;SDS011;38802;50.198;19.796;2023-02-28T04:09:12;22.70;;;14.00;;
52934;SDS011;38802;50.198;19.796;2023-02-28T04:11:42;21.60;;;13.50;;
52934;SDS011;38802;50.198;19.796;2023-02-28T04:14:15;23.60;;;13.50;;
52934;SDS011;38802;50.198;19.796;2023-02-28T04:16:42;25.30;;;14.10;;
52934;SDS011;38802;50.198;19.796;2023-02-28T04:19:09;26.50;;;15.00;;
52934;SDS011;38802;50.198;19.796;2023-02-28T04:21:39;19.60;;;13.20;;
52934;SDS011;38802;50.198;19.796;2023-02-28T04:24:08;26.10;;;14.40;;
52934;SDS011;38802;50.198;19.796;2023-02-28T04:26:41;27.10;;;16.00;;
52934;SDS011;38802;50.198;19.796;2023-02-28T04:29:13;24.60;;;15.20;;
52934;SDS011;38802;50.198;19.796;2023-02-28T04:31:44;27.20;;;15.60;;
52934;SDS011;38802;50.198;19.796;2023-02-28T04:34:11;22.00;;;13.80;;
52934;SDS011;38802;50.198;19.796;2023-02-28T04:36:38;27.70;;;15.00;;
52934;SDS011;38802;50.198;19.796;2023-02-28T04:39:04;27.50;;;16.00;;
52934;SDS011;38802;50.198;19.796;2023-02-28T04:41:31;23.80;;;14.60;;
52934;SDS011;38802;50.198;19.796;2023-02-28T04:43:59;20.40;;;14.00;;
52934;SDS011;38802;50.198;19.796;2023-02-28T04:46:26;20.60;;;15.10;;
52934;SDS011;38802;50.198;19.796;2023-02-28T04:48:53;21.40;;;14.70;;
52934;SDS011;38802;50.198;19.796;2023-02-28T04:51:20;23.70;;;15.00;;
52934;SDS011;38802;50.198;19.796;2023-02-28T04:53:47;26.10;;;16.90;;
52934;SDS011;38802;50.198;19.796;2023-02-28T04:56:15;21.50;;;14.90;;
52934;SDS011;38802;50.198;19.796;2023-02-28T04:58:43;21.90;;;13.70;;
52934;SDS011;38802;50.198;19.796;2023-02-28T05:01:24;23.00;;;14.40;;
52934;SDS011;38802;50.198;19.796;2023-02-28T05:03:54;22.30;;;13.50;;
52934;SDS011;38802;50.198;19.796;2023-02-28T05:06:23;24.70;;;15.00;;
52934;SDS011;38802;50.198;19.796;2023-02-28T05:08:51;23.80;;;15.50;;
52934;SDS011;38802;50.198;19.796;2023-02-28T05:11:20;20.30;;;13.60;;
52934;SDS011;38802;50.198;19.796;2023-02-28T05:13:49;23.70;;;14.50;;
52934;SDS011;38802;50.198;19.796;2023-02-28T05:16:18;25.70;;;14.70;;
52934;SDS011;38802;50.198;19.796;2023-02-28T05:18:45;21.10;;;14.90;;
52934;SDS011;38802;50.198;19.796;2023-02-28T05:21:25;20.30;;;14.60;;
52934;SDS011;38802;50.198;19.796;2023-02-28T05:23:55;21.90;;;16.20;;
52934;SDS011;38802;50.198;19.796;2023-02-28T05:26:24;25.00;;;14.80;;
52934;SDS011;38802;50.198;19.796;2023-02-28T05:28:51;22.70;;;13.50;;
52934;SDS011;38802;50.198;19.796;2023-02-28T05:31:18;23.10;;;13.80;;
52934;SDS011;38802;50.198;19.796;2023-02-28T05:33:45;18.70;;;13.70;;
52934;SDS011;38802;50.198;19.796;2023-02-28T05:36:12;28.90;;;14.60;;
52934;SDS011;38802;50.198;19.796;2023-02-28T05:38:39;21.40;;;13.80;;
52934;SDS011;38802;50.198;19.796;2023-02-28T05:41:09;28.60;;;16.00;;
52934;SDS011;38802;50.198;19.796;2023-02-28T05:43:37;23.30;;;13.50;;
52934;SDS011;38802;50.198;19.796;2023-02-28T05:46:05;22.60;;;14.80;;
52934;SDS011;38802;50.198;19.796;2023-02-28T05:48:33;26.30;;;16.10;;
52934;SDS011;38802;50.198;19.796;2023-02-28T05:51:02;20.80;;;13.50;;
52934;SDS011;38802;50.198;19.796;2023-02-28T05:53:30;23.30;;;14.90;;
52934;SDS011;38802;50.198;19.796;2023-02-28T05:55:56;24.00;;;14.10;;
52934;SDS011;38802;50.198;19.796;2023-02-28T05:58:23;20.90;;;13.70;;
52934;SDS011;38802;50.198;19.796;2023-02-28T06:00:57;27.20;;;16.00;;
52934;SDS011;38802;50.198;19.796;2023-02-28T06:03:25;25.40;;;15.20;;
52934;SDS011;38802;50.198;19.796;2023-02-28T06:05:53;24.00;;;14.90;;
52934;SDS011;38802;50.198;19.796;2023-02-28T06:08:20;33.10;;;18.10;;
52934;SDS011;38802;50.198;19.796;2023-02-28T06:10:47;21.50;;;15.10;;
52934;SDS011;38802;50.198;19.796;2023-02-28T06:13:13;25.00;;;15.60;;
52934;SDS011;38802;50.198;19.796;2023-02-28T06:15:40;32.60;;;16.60;;
52934;SDS011;38802;50.198;19.796;2023-02-28T06:18:07;30.70;;;16.80;;
52934;SDS011;38802;50.198;19.796;2023-02-28T06:20:34;25.60;;;16.10;;
52934;SDS011;38802;50.198;19.796;2023-02-28T06:23:02;29.70;;;16.80;;
52934;SDS011;38802;50.198;19.796;2023-02-28T06:25:29;29.10;;;17.00;;
52934;SDS011;38802;50.198;19.796;2023-02-28T06:27:56;29.50;;;17.10;;
52934;SDS011;38802;50.198;19.796;2023-02-28T06:30:23;26.00;;;17.20;;
52934;SDS011;38802;50.198;19.796;2023-02-28T06:32:53;32.20;;;19.10;;
52934;SDS011;38802;50.198;19.796;2023-02-28T06:35:22;31.60;;;18.10;;
52934;SDS011;38802;50.198;19.796;2023-02-28T06:37:48;36.00;;;21.10;;
52934;SDS011;38802;50.198;19.796;2023-02-28T06:40:15;33.60;;;19.30;;
52934;SDS011;38802;50.198;19.796;2023-02-28T06:42:42;29.80;;;19.30;;
52934;SDS011;38802;50.198;19.796;2023-02-28T06:45:10;30.10;;;17.20;;
52934;SDS011;38802;50.198;19.796;2023-02-28T06:47:38;32.90;;;18.90;;
52934;SDS011;38802;50.198;19.796;2023-02-28T06:50:06;31.00;;;18.50;;
52934;SDS011;38802;50.198;19.796;2023-02-28T06:52:34;29.90;;;17.10;;
52934;SDS011;38802;50.198;19.796;2023-02-28T06:55:04;36.40;;;18.60;;
52934;SDS011;38802;50.198;19.796;2023-02-28T06:57:32;30.50;;;17.50;;
52934;SDS011;38802;50.198;19.796;2023-02-28T07:00:01;29.70;;;17.80;;
52934;SDS011;38802;50.198;19.796;2023-02-28T07:02:31;33.50;;;18.20;;
52934;SDS011;38802;50.198;19.796;2023-02-28T07:04:58;28.10;;;17.10;;
52934;SDS011;38802;50.198;19.796;2023-02-28T07:07:25;27.60;;;17.60;;
52934;SDS011;38802;50.198;19.796;2023-02-28T07:09:51;37.10;;;19.60;;
52934;SDS011;38802;50.198;19.796;2023-02-28T07:12:18;33.10;;;19.60;;
52934;SDS011;38802;50.198;19.796;2023-02-28T07:14:45;26.60;;;18.20;;
52934;SDS011;38802;50.198;19.796;2023-02-28T07:17:11;27.40;;;17.40;;
52934;SDS011;38802;50.198;19.796;2023-02-28T07:19:38;34.20;;;20.50;;
52934;SDS011;38802;50.198;19.796;2023-02-28T07:22:06;29.10;;;18.60;;
52934;SDS011;38802;50.198;19.796;2023-02-28T07:24:33;33.30;;;19.90;;
52934;SDS011;38802;50.198;19.796;2023-02-28T07:27:00;31.90;;;20.20;;
52934;SDS011;38802;50.198;19.796;2023-02-28T07:29:27;32.60;;;19.60;;
52934;SDS011;38802;50.198;19.796;2023-02-28T07:31:55;30.60;;;19.90;;
52934;SDS011;38802;50.198;19.796;2023-02-28T07:34:22;37.10;;;20.80;;
52934;SDS011;38802;50.198;19.796;2023-02-28T07:36:49;37.20;;;20.20;;
52934;SDS011;38802;50.198;19.796;2023-02-28T07:39:20;33.60;;;21.80;;
52934;SDS011;38802;50.198;19.796;2023-02-28T07:41:47;38.70;;;20.70;;
52934;SDS011;38802;50.198;19.796;2023-02-28T07:44:14;39.80;;;21.40;;
52934;SDS011;38802;50.198;19.796;2023-02-28T07:46:41;39.80;;;21.30;;
52934;SDS011;38802;50.198;19.796;2023-02-28T07:49:08;34.10;;;18.80;;
52934;SDS011;38802;50.198;19.796;2023-02-28T07:51:35;31.60;;;18.20;;
52934;SDS011;38802;50.198;19.796;2023-02-28T07:54:02;34.80;;;21.20;;
52934;SDS011;38802;50.198;19.796;2023-02-28T07:56:29;33.60;;;20.20;;
52934;SDS011;38802;50.198;19.796;2023-02-28T07:58:56;33.40;;;20.10;;
52934;SDS011;38802;50.198;19.796;2023-02-28T08:01:23;30.40;;;18.50;;
52934;SDS011;38802;50.198;19.796;2023-02-28T08:03:50;28.10;;;18.10;;
52934;SDS011;38802;50.198;19.796;2023-02-28T08:06:18;29.30;;;16.20;;
52934;SDS011;38802;50.198;19.796;2023-02-28T08:08:47;33.20;;;19.70;;
52934;SDS011;38802;50.198;19.796;2023-02-28T08:11:15;44.80;;;25.20;;
52934;SDS011;38802;50.198;19.796;2023-02-28T08:13:43;30.00;;;16.90;;
52934;SDS011;38802;50.198;19.796;2023-02-28T08:16:11;27.60;;;15.70;;
52934;SDS011;38802;50.198;19.796;2023-02-28T08:18:51;24.40;;;14.40;;
52934;SDS011;38802;50.198;19.796;2023-02-28T08:21:19;27.30;;;17.30;;
52934;SDS011;38802;50.198;19.796;2023-02-28T08:23:47;24.00;;;16.10;;
52934;SDS011;38802;50.198;19.796;2023-02-28T08:26:16;21.40;;;13.70;;
52934;SDS011;38802;50.198;19.796;2023-02-28T08:28:43;21.80;;;14.40;;
52934;SDS011;38802;50.198;19.796;2023-02-28T08:31:11;25.70;;;15.30;;
52934;SDS011;38802;50.198;19.796;2023-02-28T08:33:40;20.90;;;15.20;;
52934;SDS011;38802;50.198;19.796;2023-02-28T08:36:08;20.90;;;14.10;;
52934;SDS011;38802;50.198;19.796;2023-02-28T08:38:35;16.80;;;13.40;;
52934;SDS011;38802;50.198;19.796;2023-02-28T08:41:04;23.80;;;15.40;;
52934;SDS011;38802;50.198;19.796;2023-02-28T08:43:33;20.30;;;13.30;;
52934;SDS011;38802;50.198;19.796;2023-02-28T08:46:01;29.10;;;16.80;;
52934;SDS011;38802;50.198;19.796;2023-02-28T08:48:28;14.10;;;10.90;;
52934;SDS011;38802;50.198;19.796;2023-02-28T08:50:58;15.30;;;10.40;;
52934;SDS011;38802;50.198;19.796;2023-02-28T08:53:37;12.30;;;11.00;;
52934;SDS011;38802;50.198;19.796;2023-02-28T08:56:09;15.00;;;10.50;;
52934;SDS011;38802;50.198;19.796;2023-02-28T08:58:38;17.40;;;10.20;;
52934;SDS011;38802;50.198;19.796;2023-02-28T09:01:13;13.50;;;11.60;;
52934;SDS011;38802;50.198;19.796;2023-02-28T09:03:43;15.10;;;9.20;;
52934;SDS011;38802;50.198;19.796;2023-02-28T09:06:16;12.70;;;10.00;;
52934;SDS011;38802;50.198;19.796;2023-02-28T09:08:45;17.80;;;9.60;;
52934;SDS011;38802;50.198;19.796;2023-02-28T09:11:12;12.60;;;10.10;;
52934;SDS011;38802;50.198;19.796;2023-02-28T09:13:40;12.00;;;9.60;;
52934;SDS011;38802;50.198;19.796;2023-02-28T09:16:07;13.30;;;9.10;;
52934;SDS011;38802;50.198;19.796;2023-02-28T09:18:37;15.20;;;10.50;;
52934;SDS011;38802;50.198;19.796;2023-02-28T09:21:05;17.60;;;10.60;;
52934;SDS011;38802;50.198;19.796;2023-02-28T09:23:43;12.60;;;10.20;;
52934;SDS011;38802;50.198;19.796;2023-02-28T09:26:14;14.70;;;9.70;;
52934;SDS011;38802;50.198;19.796;2023-02-28T09:28:45;12.00;;;9.60;;
52934;SDS011;38802;50.198;19.796;2023-02-28T09:31:13;15.20;;;11.30;;
52934;SDS011;38802;50.198;19.796;2023-02-28T09:33:42;13.50;;;9.10;;
52934;SDS011;38802;50.198;19.796;2023-02-28T09:36:09;11.40;;;9.70;;
52934;SDS011;38802;50.198;19.796;2023-02-28T09:38:36;13.70;;;8.80;;
52934;SDS011;38802;50.198;19.796;2023-02-28T09:41:08;11.00;;;9.10;;
52934;SDS011;38802;50.198;19.796;2023-02-28T09:43:40;13.30;;;9.40;;
52934;SDS011;38802;50.198;19.796;2023-02-28T09:46:27;10.00;;;8.50;;
52934;SDS011;38802;50.198;19.796;2023-02-28T09:48:58;11.30;;;9.40;;
52934;SDS011;38802;50.198;19.796;2023-02-28T09:51:53;11.90;;;9.90;;
52934;SDS011;38802;50.198;19.796;2023-02-28T09:54:26;13.10;;;9.20;;
52934;SDS011;38802;50.198;19.796;2023-02-28T09:59:39;17.60;;;11.60;;
52934;SDS011;38802;50.198;19.796;2023-02-28T10:05:04;15.10;;;10.70;;
52934;SDS011;38802;50.198;19.796;2023-02-28T10:10:25;16.20;;;10.50;;
52934;SDS011;38802;50.198;19.796;2023-02-28T10:12:56;10.30;;;9.00;;
52934;SDS011;38802;50.198;19.796;2023-02-28T10:15:29;10.00;;;7.10;;
52934;SDS011;38802;50.198;19.796;2023-02-28T10:17:58;9.90;;;8.30;;
52934;SDS011;38802;50.198;19.796;2023-02-28T10:20:37;10.30;;;9.30;;
52934;SDS011;38802;50.198;19.796;2023-02-28T10:26:03;14.00;;;9.00;;
52934;SDS011;38802;50.198;19.796;2023-02-28T10:28:37;11.90;;;9.60;;
52934;SDS011;38802;50.198;19.796;2023-02-28T10:31:05;12.50;;;8.40;;
52934;SDS011;38802;50.198;19.796;2023-02-28T10:36:09;9.80;;;8.80;;
52934;SDS011;38802;50.198;19.796;2023-02-28T10:38:40;12.80;;;9.90;;
52934;SDS011;38802;50.198;19.796;2023-02-28T10:41:08;11.00;;;8.40;;
52934;SDS011;38802;50.198;19.796;2023-02-28T10:43:37;11.70;;;9.60;;
52934;SDS011;38802;50.198;19.796;2023-02-28T10:48:38;14.60;;;10.80;;
52934;SDS011;38802;50.198;19.796;2023-02-28T10:51:10;14.60;;;11.00;;
52934;SDS011;38802;50.198;19.796;2023-02-28T10:56:26;13.00;;;10.70;;
52934;SDS011;38802;50.198;19.796;2023-02-28T11:03:58;11.60;;;9.90;;
52934;SDS011;38802;50.198;19.796;2023-02-28T11:06:26;10.60;;;9.20;;
52934;SDS011;38802;50.198;19.796;2023-02-28T11:09:04;11.90;;;9.40;;
52934;SDS011;38802;50.198;19.796;2023-02-28T11:11:43;12.00;;;10.70;;
52934;SDS011;38802;50.198;19.796;2023-02-28T11:14:24;12.60;;;9.80;;
52934;SDS011;38802;50.198;19.796;2023-02-28T11:16:54;12.00;;;10.70;;
52934;SDS011;38802;50.198;19.796;2023-02-28T11:19:26;13.90;;;10.40;;
52934;SDS011;38802;50.198;19.796;2023-02-28T11:22:01;10.00;;;8.90;;
52934;SDS011;38802;50.198;19.796;2023-02-28T11:24:37;12.10;;;10.00;;
52934;SDS011;38802;50.198;19.796;2023-02-28T11:29:57;16.20;;;10.90;;
52934;SDS011;38802;50.198;19.796;2023-02-28T11:32:28;14.10;;;10.90;;
52934;SDS011;38802;50.198;19.796;2023-02-28T11:35:02;15.50;;;10.30;;
52934;SDS011;38802;50.198;19.796;2023-02-28T11:37:38;11.40;;;10.30;;
52934;SDS011;38802;50.198;19.796;2023-02-28T11:40:16;10.70;;;9.60;;
52934;SDS011;38802;50.198;19.796;2023-02-28T11:43:38;13.60;;;10.50;;
52934;SDS011;38802;50.198;19.796;2023-02-28T11:49:14;11.30;;;9.20;;
52934;SDS011;38802;50.198;19.796;2023-02-28T11:51:48;21.70;;;13.20;;
52934;SDS011;38802;50.198;19.796;2023-02-28T12:06:13;16.50;;;11.30;;
52934;SDS011;38802;50.198;19.796;2023-02-28T12:11:51;12.80;;;10.30;;
52934;SDS011;38802;50.198;19.796;2023-02-28T12:19:48;14.50;;;11.00;;
52934;SDS011;38802;50.198;19.796;2023-02-28T12:22:31;12.30;;;11.10;;
52934;SDS011;38802;50.198;19.796;2023-02-28T12:25:21;15.00;;;11.50;;
52934;SDS011;38802;50.198;19.796;2023-02-28T12:27:56;13.40;;;11.10;;
52934;SDS011;38802;50.198;19.796;2023-02-28T12:30:30;14.20;;;11.00;;
52934;SDS011;38802;50.198;19.796;2023-02-28T12:33:08;11.40;;;10.20;;
52934;SDS011;38802;50.198;19.796;2023-02-28T12:35:41;14.20;;;10.40;;
52934;SDS011;38802;50.198;19.796;2023-02-28T12:38:19;10.50;;;9.50;;
52934;SDS011;38802;50.198;19.796;2023-02-28T12:43:20;13.20;;;10.10;;
52934;SDS011;38802;50.198;19.796;2023-02-28T12:45:53;11.80;;;10.10;;
52934;SDS011;38802;50.198;19.796;2023-02-28T12:48:29;14.80;;;10.60;;
52934;SDS011;38802;50.198;19.796;2023-02-28T12:51:02;12.90;;;9.60;;
52934;SDS011;38802;50.198;19.796;2023-02-28T12:53:44;11.70;;;10.50;;
52934;SDS011;38802;50.198;19.796;2023-02-28T12:59:14;12.00;;;9.00;;
52934;SDS011;38802;50.198;19.796;2023-02-28T13:10:43;12.90;;;10.10;;
52934;SDS011;38802;50.198;19.796;2023-02-28T13:13:16;11.30;;;9.40;;
52934;SDS011;38802;50.198;19.796;2023-02-28T13:15:57;12.90;;;9.10;;
52934;SDS011;38802;50.198;19.796;2023-02-28T13:21:07;14.20;;;10.50;;
52934;SDS011;38802;50.198;19.796;2023-02-28T13:34:28;15.10;;;9.90;;
52934;SDS011;38802;50.198;19.796;2023-02-28T13:52:50;11.60;;;9.70;;
52934;SDS011;38802;50.198;19.796;2023-02-28T13:58:39;16.10;;;10.60;;
52934;SDS011;38802;50.198;19.796;2023-02-28T14:01:17;10.30;;;9.30;;
52934;SDS011;38802;50.198;19.796;2023-02-28T14:03:53;13.00;;;9.90;;
52934;SDS011;38802;50.198;19.796;2023-02-28T14:11:35;20.90;;;10.30;;
52934;SDS011;38802;50.198;19.796;2023-02-28T14:14:07;10.40;;;9.30;;
52934;SDS011;38802;50.198;19.796;2023-02-28T14:16:43;11.50;;;9.90;;
52934;SDS011;38802;50.198;19.796;2023-02-28T14:32:37;11.10;;;8.90;;
52934;SDS011;38802;50.198;19.796;2023-02-28T14:38:14;13.30;;;10.20;;
52934;SDS011;38802;50.198;19.796;2023-02-28T14:40:55;13.40;;;10.70;;
52934;SDS011;38802;50.198;19.796;2023-02-28T14:43:26;13.00;;;10.40;;
52934;SDS011;38802;50.198;19.796;2023-02-28T14:45:55;12.60;;;9.90;;
52934;SDS011;38802;50.198;19.796;2023-02-28T14:48:24;12.40;;;10.60;;
52934;SDS011;38802;50.198;19.796;2023-02-28T14:51:01;14.60;;;11.20;;
52934;SDS011;38802;50.198;19.796;2023-02-28T14:53:29;16.00;;;11.20;;
52934;SDS011;38802;50.198;19.796;2023-02-28T14:56:01;15.40;;;11.30;;
52934;SDS011;38802;50.198;19.796;2023-02-28T14:58:29;11.30;;;10.00;;
52934;SDS011;38802;50.198;19.796;2023-02-28T15:00:59;13.60;;;11.00;;
52934;SDS011;38802;50.198;19.796;2023-02-28T15:03:32;15.10;;;10.80;;
52934;SDS011;38802;50.198;19.796;2023-02-28T15:06:01;13.30;;;12.10;;
52934;SDS011;38802;50.198;19.796;2023-02-28T15:08:44;14.10;;;10.80;;
52934;SDS011;38802;50.198;19.796;2023-02-28T15:11:16;13.40;;;11.30;;
52934;SDS011;38802;50.198;19.796;2023-02-28T15:13:49;16.80;;;12.10;;
52934;SDS011;38802;50.198;19.796;2023-02-28T15:19:25;12.60;;;10.20;;
52934;SDS011;38802;50.198;19.796;2023-02-28T15:21:57;12.20;;;9.50;;
52934;SDS011;38802;50.198;19.796;2023-02-28T15:24:41;12.60;;;10.30;;
52934;SDS011;38802;50.198;19.796;2023-02-28T15:27:12;15.60;;;11.80;;
52934;SDS011;38802;50.198;19.796;2023-02-28T15:29:48;13.30;;;10.30;;
52934;SDS011;38802;50.198;19.796;2023-02-28T15:32:33;16.60;;;11.60;;
52934;SDS011;38802;50.198;19.796;2023-02-28T15:37:57;18.00;;;11.70;;
52934;SDS011;38802;50.198;19.796;2023-02-28T15:40:30;14.20;;;10.70;;
52934;SDS011;38802;50.198;19.796;2023-02-28T15:45:37;16.70;;;11.20;;
52934;SDS011;38802;50.198;19.796;2023-02-28T15:48:20;13.70;;;10.20;;
52934;SDS011;38802;50.198;19.796;2023-02-28T15:50:57;11.40;;;10.30;;
52934;SDS011;38802;50.198;19.796;2023-02-28T15:53:40;13.60;;;10.60;;
52934;SDS011;38802;50.198;19.796;2023-02-28T15:56:20;14.50;;;11.40;;
52934;SDS011;38802;50.198;19.796;2023-02-28T15:58:55;17.40;;;11.60;;
52934;SDS011;38802;50.198;19.796;2023-02-28T16:01:31;10.80;;;9.80;;
52934;SDS011;38802;50.198;19.796;2023-02-28T16:04:03;14.30;;;11.00;;
52934;SDS011;38802;50.198;19.796;2023-02-28T16:07:14;27.00;;;14.40;;
52934;SDS011;38802;50.198;19.796;2023-02-28T16:09:39;25.30;;;14.50;;
52934;SDS011;38802;50.198;19.796;2023-02-28T16:12:05;27.50;;;15.90;;
52934;SDS011;38802;50.198;19.796;2023-02-28T16:14:39;39.10;;;20.30;;
52934;SDS011;38802;50.198;19.796;2023-02-28T16:17:09;60.10;;;27.00;;
52934;SDS011;38802;50.198;19.796;2023-02-28T16:19:45;70.20;;;29.70;;
52934;SDS011;38802;50.198;19.796;2023-02-28T16:22:12;62.30;;;26.20;;
52934;SDS011;38802;50.198;19.796;2023-02-28T16:24:39;80.50;;;31.80;;
52934;SDS011;38802;50.198;19.796;2023-02-28T16:27:06;79.20;;;31.80;;
52934;SDS011;38802;50.198;19.796;2023-02-28T16:29:37;84.30;;;32.00;;
52934;SDS011;38802;50.198;19.796;2023-02-28T16:32:04;59.60;;;25.50;;
52934;SDS011;38802;50.198;19.796;2023-02-28T16:34:32;46.80;;;22.80;;
52934;SDS011;38802;50.198;19.796;2023-02-28T16:36:59;47.90;;;23.40;;
52934;SDS011;38802;50.198;19.796;2023-02-28T16:39:26;47.90;;;18.60;;
52934;SDS011;38802;50.198;19.796;2023-02-28T16:41:52;34.10;;;17.00;;
52934;SDS011;38802;50.198;19.796;2023-02-28T16:44:23;29.60;;;15.90;;
52934;SDS011;38802;50.198;19.796;2023-02-28T16:46:52;25.40;;;15.10;;
52934;SDS011;38802;50.198;19.796;2023-02-28T16:49:19;19.40;;;12.70;;
52934;SDS011;38802;50.198;19.796;2023-02-28T16:51:45;18.00;;;11.90;;
52934;SDS011;38802;50.198;19.796;2023-02-28T16:54:13;15.20;;;11.30;;
52934;SDS011;38802;50.198;19.796;2023-02-28T16:56:41;20.70;;;11.90;;
52934;SDS011;38802;50.198;19.796;2023-02-28T16:59:11;13.60;;;11.20;;
52934;SDS011;38802;50.198;19.796;2023-02-28T17:01:39;13.60;;;11.00;;
52934;SDS011;38802;50.198;19.796;2023-02-28T17:04:08;21.20;;;12.00;;
52934;SDS011;38802;50.198;19.796;2023-02-28T17:06:35;12.60;;;10.60;;
52934;SDS011;38802;50.198;19.796;2023-02-28T17:09:02;19.60;;;11.70;;
52934;SDS011;38802;50.198;19.796;2023-02-28T17:11:30;14.10;;;11.90;;
52934;SDS011;38802;50.198;19.796;2023-02-28T17:13:57;29.00;;;17.60;;
52934;SDS011;38802;50.198;19.796;2023-02-28T17:18:54;27.80;;;17.80;;
52934;SDS011;38802;50.198;19.796;2023-02-28T17:21:24;41.90;;;20.10;;
52934;SDS011;38802;50.198;19.796;2023-02-28T17:23:50;39.20;;;20.10;;
52934;SDS011;38802;50.198;19.796;2023-02-28T17:26:18;37.10;;;19.80;;
52934;SDS011;38802;50.198;19.796;2023-02-28T17:28:51;52.60;;;23.10;;